首页
METAR-TAF:

METAR-TAF

机场 :

安纳巴, 阿尔及利亚

纬度: 36-50N, 经度: 007-49E, 海拔: 4米

当前天气观测

该预报发布于38分钟前的20:00 UTC
风速2节,风向南转南东
温度 11°C
湿度 87%
气压 1022 hPa
能见度10公里或以上
少量云层高于2300英尺, 塔状积云.
散云层高于4000英尺

METAR: DABB 262000Z 15002KT 9999 FEW023TCU SCT040 11/09 Q1022

时间: 21:38 (20:38 UTC)

预报

该预报发布于3小时和38分钟前的17:00 UTC
预报有效从26日的 18点(UTC)到 27日的 18点(UTC)
风速10节,风向西北
能见度10公里或以上
少量云层高于2300英尺, 塔状积云.
散云层高于4000英尺
几率 30% :
短暂存在
从 26日的 18点(UTC)到 26日的 21点(UTC)
能見度: 5000
少量云层高于2300英尺, 积雨云.
多云层高于3000英尺
雷暴, 小雨
成为
从 26日的 19点(UTC)到 26日的 21点(UTC)
风速8节,风向南转西南
几率 30% :
短暂存在
从 27日的 00点(UTC)到 27日的 06点(UTC)
风速2节,风向多变
能見度: 3000
多云层高于1000英尺
轻雾
短暂存在
从 27日的 09点(UTC)到 27日的 18点(UTC)
少量云层高于3000英尺, 塔状积云.

TAF: DABB 261700Z 2618/2718 32010KT 9999 FEW023TCU SCT040 PROB30 TEMPO 2618/2621 5000 -TSRA FEW023CB BKN030 BECMG 2619/2621 20008KT NSW PROB30 TEMPO 2700/2706 VRB02KT 3000 BR BKN010 TEMPO 2709/2718 FEW030TCU

超过4000个机场的气象观测和天气预报(METAR&TAF报告)。

可查询的气象台以黄色和红色小点在地图上表示。

将鼠标移到小点上方,可查看气象台名称。

然后点击查看天气观测和预报。

如需切换地图:点击带黑十字的绿色按钮放大地图;点击带横线的绿色按钮缩小地图;或者点击绿色箭头查看邻近地区的地图。


METAR-TAF: